11 août 2022

Temps Code Temps Temp. Vue Base cloud Vent METAR/SPECI
19:00
V
23 °C 10 km+ - 240° 240° 12 kt METAR LPFR 111800Z 24012KT CAVOK 23/18 Q1013
18:30
V
23 °C 10 km+ - 260° 260° 15 kt METAR LPFR 111730Z 26015KT CAVOK 23/18 Q1013
18:00
V
23 °C 10 km+ - 250° 250° 13 kt METAR LPFR 111700Z 25013KT CAVOK 23/17 Q1013
17:30
V
24 °C 10 km+ - 250° 250° 13 kt METAR LPFR 111630Z 25013KT CAVOK 24/17 Q1014
17:00
V
24 °C 10 km+ - 250° 250° 13 kt METAR LPFR 111600Z 25013KT CAVOK 24/17 Q1014
16:30
V
23 °C 10 km+ - 250° 250° 14 kt METAR LPFR 111530Z 25014KT CAVOK 23/17 Q1014
16:00
V
24 °C 10 km+ - 250° 250° 13 kt METAR LPFR 111500Z 25013KT CAVOK 24/17 Q1014
15:30
V
24 °C 10 km+ - 240° 240° 11 kt METAR LPFR 111430Z 24011KT CAVOK 24/18 Q1014
15:00
V
23 °C 10 km+ - 220° 220° 9 kt METAR LPFR 111400Z 22009KT CAVOK 23/17 Q1015
14:30
V
23 °C 10 km+ - 220° 220° 10 kt METAR LPFR 111330Z 22010KT CAVOK 23/17 Q1015
14:00
V
23 °C 10 km+ - 220° 220° 9 kt METAR LPFR 111300Z 22009KT CAVOK 23/17 Q1015
13:30
V
23 °C 10 km+ - 210° 210° 9 kt METAR LPFR 111230Z 21009KT CAVOK 23/17 Q1015
13:00
V
23 °C 10 km+ - 220° 220° 9 kt METAR LPFR 111200Z 22009KT CAVOK 23/17 Q1015
12:30
V
23 °C 10 km+ - 210° 210° 7 kt METAR LPFR 111130Z 21007KT 150V250 CAVOK 23/16 Q1015
12:00
V
23 °C 10 km+ - 190° 190° 5 kt METAR LPFR 111100Z 19005KT 120V250 CAVOK 23/16 Q1015
11:30
V
22 °C 10 km+ - 190° 190° 5 kt METAR LPFR 111030Z 19005KT 140V250 9999 FEW040 22/16 Q1016
11:00
V
22 °C 10 km+ - 170° 170° 5 kt METAR LPFR 111000Z 17005KT 130V210 9999 FEW040 22/16 Q1016
10:30
V
22 °C 10 km+ - 170° 170° 6 kt METAR LPFR 110930Z 17006KT 140V210 CAVOK 22/17 Q1015
10:00
V
22 °C 10 km+ - 130° 130° 4 kt METAR LPFR 110900Z 13004KT 080V170 CAVOK 22/16 Q1015
09:30
V
22 °C 10 km+ - 140° 140° 4 kt METAR LPFR 110830Z 14004KT 100V160 CAVOK 22/16 Q1015
09:00
V
21 °C 10 km+ - Var Var 2 kt METAR LPFR 110800Z VRB02KT CAVOK 21/15 Q1015
08:30
V
21 °C 10 km+ - 030° 030° 4 kt METAR LPFR 110730Z 03004KT 330V110 CAVOK 21/15 Q1015
08:00
V
19 °C 10 km+ - 020° 020° 4 kt METAR LPFR 110700Z 02004KT CAVOK 19/14 Q1015
07:30
V
17 °C 10 km+ - 020° 020° 5 kt METAR LPFR 110630Z 02005KT 330V040 CAVOK 17/14 Q1014
07:00
V
17 °C 10 km+ - 360° 360° 4 kt METAR LPFR 110600Z 36004KT 310V040 CAVOK 17/14 Q1014
06:30
V
18 °C 10 km+ - 020° 020° 4 kt METAR LPFR 110530Z 02004KT CAVOK 18/14 Q1014
06:00
V
18 °C 10 km+ - Var Var 2 kt METAR LPFR 110500Z VRB02KT CAVOK 18/14 Q1014
05:30
V
18 °C 10 km+ - 340° 340° 4 kt METAR LPFR 110430Z 34004KT CAVOK 18/14 Q1014
05:00
V
18 °C 10 km+ - 300° 300° 5 kt METAR LPFR 110400Z 30005KT CAVOK 18/14 Q1014
04:30
V
18 °C 10 km+ - 310° 310° 5 kt METAR LPFR 110330Z 31005KT CAVOK 18/14 Q1014
04:00
V
18 °C 10 km+ - 280° 280° 4 kt METAR LPFR 110300Z 28004KT CAVOK 18/15 Q1014
03:30
V
18 °C 10 km+ - 280° 280° 5 kt METAR LPFR 110230Z 28005KT CAVOK 18/15 Q1014
03:00
V
18 °C 10 km+ - 290° 290° 4 kt METAR LPFR 110200Z 29004KT CAVOK 18/15 Q1014
02:30
V
19 °C 10 km+ - 300° 300° 5 kt METAR LPFR 110130Z 30005KT CAVOK 19/15 Q1014
02:00
V
20 °C 10 km+ - 290° 290° 6 kt METAR LPFR 110100Z 29006KT CAVOK 20/16 Q1014
01:30
V
20 °C 10 km+ - 270° 270° 7 kt METAR LPFR 110030Z 27007KT CAVOK 20/16 Q1015
01:00
V
20 °C 10 km+ - 290° 290° 7 kt METAR LPFR 110000Z 29007KT CAVOK 20/16 Q1014
00:30
V
21 °C 10 km+ - 280° 280° 9 kt METAR LPFR 102330Z 28009KT CAVOK 21/16 Q1014
00:00
V
21 °C 10 km+ - 280° 280° 11 kt METAR LPFR 102300Z 28011KT CAVOK 21/17 Q1014

10 août 2022

Temps Code Temps Temp. Vue Base cloud Vent METAR/SPECI
23:30
V
21 °C 10 km+ - 270° 270° 11 kt METAR LPFR 102230Z 27011KT CAVOK 21/17 Q1014
23:00
V
21 °C 10 km+ - 270° 270° 11 kt METAR LPFR 102200Z 27011KT CAVOK 21/17 Q1014
22:30
V
21 °C 10 km+ - 260° 260° 11 kt METAR LPFR 102130Z 26011KT CAVOK 21/17 Q1014
22:00
V
21 °C 10 km+ - 260° 260° 12 kt METAR LPFR 102100Z 26012KT CAVOK 21/17 Q1014
21:30
V
21 °C 10 km+ - 260° 260° 11 kt METAR LPFR 102030Z 26011KT CAVOK 21/17 Q1014
21:00
V
21 °C 10 km+ - 260° 260° 10 kt METAR LPFR 102000Z 26010KT CAVOK 21/17 Q1013
20:30
V
21 °C 10 km+ - 260° 260° 10 kt METAR LPFR 101930Z 26010KT CAVOK 21/17 Q1013
20:00
V
22 °C 10 km+ - 250° 250° 11 kt METAR LPFR 101900Z 25011KT CAVOK 22/17 Q1013
19:30
V
22 °C 10 km+ - 260° 260° 12 kt METAR LPFR 101830Z 26012KT CAVOK 22/17 Q1013
19:00
V
22 °C 10 km+ - 250° 250° 12 kt METAR LPFR 101800Z 25012KT CAVOK 22/16 Q1013
18:30
V
23 °C 10 km+ - 240° 240° 10 kt METAR LPFR 101730Z 24010KT CAVOK 23/17 Q1013
18:00
V
23 °C 10 km+ - 220° 220° 10 kt METAR LPFR 101700Z 22010KT CAVOK 23/16 Q1013
17:30
V
23 °C 10 km+ - 230° 230° 10 kt METAR LPFR 101630Z 23010KT CAVOK 23/16 Q1014
17:00
V
23 °C 10 km+ - 220° 220° 10 kt METAR LPFR 101600Z 22010KT CAVOK 23/16 Q1014
16:30
V
23 °C 10 km+ - 230° 230° 9 kt METAR LPFR 101530Z 23009KT 200V260 CAVOK 23/16 Q1014
16:00
V
22 °C 10 km+ - 230° 230° 8 kt METAR LPFR 101500Z 23008KT 200V260 CAVOK 22/16 Q1014
15:30
V
22 °C 10 km+ - 240° 240° 9 kt METAR LPFR 101430Z 24009KT CAVOK 22/15 Q1014
15:00
V
23 °C 10 km+ - 220° 220° 9 kt METAR LPFR 101400Z 22009KT CAVOK 23/15 Q1015
14:30
V
23 °C 10 km+ - 220° 220° 8 kt METAR LPFR 101330Z 22008KT CAVOK 23/15 Q1015
14:00
V
22 °C 10 km+ - 210° 210° 7 kt METAR LPFR 101300Z 21007KT 180V240 CAVOK 22/16 Q1015
13:30
V
22 °C 10 km+ - 220° 220° 8 kt METAR LPFR 101230Z 22008KT 190V250 9999 FEW020 22/15 Q1015
13:00
M
22 °C 10 km+ 2.000 ft 220° 220° 9 kt METAR LPFR 101200Z 22009KT 9999 FEW016 BKN020 22/16 Q1015
12:30
M
22 °C 10 km+ 2.000 ft 230° 230° 8 kt METAR LPFR 101130Z 23008KT 9999 FEW016 BKN020 22/16 Q1015
12:00
M
21 °C 10 km+ 2.000 ft 230° 230° 9 kt METAR LPFR 101100Z 23009KT 200V260 9999 FEW014 OVC020 21/16 Q1015
11:30
M
21 °C 10 km+ 2.200 ft 230° 230° 8 kt METAR LPFR 101030Z 23008KT 9999 FEW014 OVC022 21/17 Q1015
11:00
M
21 °C 10 km+ 2.000 ft 240° 240° 7 kt METAR LPFR 101000Z 24007KT 9999 FEW014 BKN020 21/17 Q1015
10:30
M
21 °C 10 km+ 2.000 ft 230° 230° 8 kt METAR LPFR 100930Z 23008KT 9999 SCT012 BKN020 21/17 Q1015
10:00
M
21 °C 10 km+ 1.800 ft 230° 230° 7 kt METAR LPFR 100900Z 23007KT 9999 FEW012 BKN018 21/17 Q1015
09:30
V
21 °C 10 km+ - 210° 210° 8 kt METAR LPFR 100830Z 21008KT 190V250 9999 FEW010 SCT016 21/18 Q1015
09:00
V
20 °C 10 km+ - 220° 220° 6 kt METAR LPFR 100800Z 22006KT 9999 SCT010 SCT016 20/18 Q1014
08:30
M
20 °C 10 km+ 1.200 ft 190° 190° 5 kt METAR LPFR 100730Z 19005KT 150V220 9999 SCT010 BKN012 20/18 Q1014
08:00
V
20 °C 10 km+ - Var 000° 0 kt METAR LPFR 100700Z 00000KT 9999 SCT010 SCT012 20/18 Q1014
07:30
V
19 °C 10 km+ - 230° 230° 1 kt METAR LPFR 100630Z 23001KT 9999 FEW010 SCT030 19/17 Q1014
07:00
V
19 °C 10 km+ - 220° 220° 3 kt METAR LPFR 100600Z 22003KT 9999 FEW010 19/17 Q1014
06:30
V
19 °C 10 km+ - 240° 240° 4 kt METAR LPFR 100530Z 24004KT CAVOK 19/17 Q1013
06:00
V
19 °C 10 km+ - 250° 250° 4 kt METAR LPFR 100500Z 25004KT CAVOK 19/17 Q1013
05:30
V
19 °C 10 km+ - 240° 240° 5 kt METAR LPFR 100430Z 24005KT CAVOK 19/17 Q1013
05:00
V
20 °C 10 km+ - 230° 230° 4 kt METAR LPFR 100400Z 23004KT CAVOK 20/18 Q1013
04:30
V
20 °C 10 km+ - 230° 230° 3 kt METAR LPFR 100330Z 23003KT CAVOK 20/18 Q1013
04:00
V
20 °C 10 km+ - 240° 240° 4 kt METAR LPFR 100300Z 24004KT CAVOK 20/18 Q1014
03:30
V
21 °C 10 km+ - 210° 210° 7 kt METAR LPFR 100230Z 21007KT CAVOK 21/18 Q1014
03:00
V
21 °C 10 km+ - 220° 220° 4 kt METAR LPFR 100200Z 22004KT CAVOK 21/18 Q1014
02:30
V
21 °C 10 km+ - 230° 230° 5 kt METAR LPFR 100130Z 23005KT CAVOK 21/18 Q1014
02:00
V
21 °C 10 km+ - 220° 220° 5 kt METAR LPFR 100100Z 22005KT CAVOK 21/18 Q1014
01:30
V
21 °C 10 km+ - 230° 230° 6 kt METAR LPFR 100030Z 23006KT CAVOK 21/18 Q1014
01:00
V
21 °C 10 km+ - 230° 230° 5 kt METAR LPFR 100000Z 23005KT CAVOK 21/18 Q1014
00:30
V
21 °C 10 km+ - Var 000° 0 kt METAR LPFR 092330Z 00000KT CAVOK 21/18 Q1014
00:00
V
22 °C 10 km+ - 260° 260° 3 kt METAR LPFR 092300Z 26003KT CAVOK 22/19 Q1014

9 août 2022

Temps Code Temps Temp. Vue Base cloud Vent METAR/SPECI
23:30
V
22 °C 10 km+ - 270° 270° 8 kt METAR LPFR 092230Z 27008KT CAVOK 22/19 Q1014
23:00
V
22 °C 10 km+ - 260° 260° 6 kt METAR LPFR 092200Z 26006KT CAVOK 22/19 Q1014
22:30
V
22 °C 10 km+ - 260° 260° 8 kt METAR LPFR 092130Z 26008KT CAVOK 22/19 Q1014
22:00
V
22 °C 10 km+ - 250° 250° 6 kt METAR LPFR 092100Z 25006KT CAVOK 22/19 Q1014
21:30
V
22 °C 10 km+ - 260° 260° 7 kt METAR LPFR 092030Z 26007KT CAVOK 22/19 Q1013
21:00
V
22 °C 10 km+ - 260° 260° 8 kt METAR LPFR 092000Z 26008KT CAVOK 22/19 Q1013
20:30
V
23 °C 10 km+ - 260° 260° 9 kt METAR LPFR 091930Z 26009KT CAVOK 23/19 Q1013
20:00
V
23 °C 10 km+ - 250° 250° 10 kt METAR LPFR 091900Z 25010KT CAVOK 23/19 Q1013
19:30
V
23 °C 10 km+ - 250° 250° 8 kt METAR LPFR 091830Z 25008KT CAVOK 23/19 Q1013
19:00
V
23 °C 10 km+ - 250° 250° 8 kt METAR LPFR 091800Z 25008KT CAVOK 23/19 Q1013
18:30
V
23 °C 10 km+ - 250° 250° 9 kt METAR LPFR 091730Z 25009KT CAVOK 23/19 Q1013
18:00
V
23 °C 10 km+ - 240° 240° 10 kt METAR LPFR 091700Z 24010KT CAVOK 23/18 Q1014
17:30
V
23 °C 10 km+ - 240° 240° 10 kt METAR LPFR 091630Z 24010KT CAVOK 23/18 Q1014
17:00
V
24 °C 10 km+ - 230° 230° 8 kt METAR LPFR 091600Z 23008KT CAVOK 24/18 Q1014
16:30
V
23 °C 10 km+ - 210° 210° 7 kt METAR LPFR 091530Z 21007KT 180V240 CAVOK 23/18 Q1014
16:00
V
23 °C 10 km+ - 210° 210° 7 kt METAR LPFR 091500Z 21007KT 180V250 CAVOK 23/17 Q1014
Données plus anciennes

Nous et des tiers suivons ton comportement sur Internet sur notre site Web à l'aide de cookies. Si tu continues, nous supposons que tu acceptes notre politique en matière de cookies. Apprendre plus